sensor_id;sensor_type;location;lat;lon;timestamp;temperature;humidity
11242;DHT22;5678;52.370;9.006;2023-04-09T00:01:18;4.50;99.90
11242;DHT22;5678;52.370;9.006;2023-04-09T00:03:46;3.80;99.90
11242;DHT22;5678;52.370;9.006;2023-04-09T00:06:16;5.50;99.90
11242;DHT22;5678;52.370;9.006;2023-04-09T00:08:44;3.60;99.90
11242;DHT22;5678;52.370;9.006;2023-04-09T00:11:11;4.80;99.90
11242;DHT22;5678;52.370;9.006;2023-04-09T00:13:39;3.40;99.90
11242;DHT22;5678;52.370;9.006;2023-04-09T00:16:07;5.30;99.90
11242;DHT22;5678;52.370;9.006;2023-04-09T00:18:35;5.20;99.90
11242;DHT22;5678;52.370;9.006;2023-04-09T00:21:04;5.30;99.90
11242;DHT22;5678;52.370;9.006;2023-04-09T00:23:34;3.10;99.90
11242;DHT22;5678;52.370;9.006;2023-04-09T00:26:02;3.10;99.90
11242;DHT22;5678;52.370;9.006;2023-04-09T00:28:30;4.70;99.90
11242;DHT22;5678;52.370;9.006;2023-04-09T00:30:57;2.90;99.90
11242;DHT22;5678;52.370;9.006;2023-04-09T00:33:26;4.00;99.90
11242;DHT22;5678;52.370;9.006;2023-04-09T00:35:53;3.40;99.90
11242;DHT22;5678;52.370;9.006;2023-04-09T00:38:21;4.20;99.90
11242;DHT22;5678;52.370;9.006;2023-04-09T00:40:51;2.60;99.90
11242;DHT22;5678;52.370;9.006;2023-04-09T00:43:19;2.60;99.90
11242;DHT22;5678;52.370;9.006;2023-04-09T00:45:47;3.10;99.90
11242;DHT22;5678;52.370;9.006;2023-04-09T00:48:15;4.30;99.90
11242;DHT22;5678;52.370;9.006;2023-04-09T00:50:43;3.90;99.90
11242;DHT22;5678;52.370;9.006;2023-04-09T00:53:12;4.30;99.90
11242;DHT22;5678;52.370;9.006;2023-04-09T00:55:41;2.50;99.90
11242;DHT22;5678;52.370;9.006;2023-04-09T00:58:10;2.40;99.90
11242;DHT22;5678;52.370;9.006;2023-04-09T01:00:38;2.40;99.90
11242;DHT22;5678;52.370;9.006;2023-04-09T01:03:06;3.30;99.90
11242;DHT22;5678;52.370;9.006;2023-04-09T01:05:39;2.30;99.90
11242;DHT22;5678;52.370;9.006;2023-04-09T01:08:11;3.20;99.90
11242;DHT22;5678;52.370;9.006;2023-04-09T01:10:44;2.20;99.90
11242;DHT22;5678;52.370;9.006;2023-04-09T01:13:21;2.20;99.90
11242;DHT22;5678;52.370;9.006;2023-04-09T01:15:54;2.10;99.90
11242;DHT22;5678;52.370;9.006;2023-04-09T01:18:29;2.00;99.90
11242;DHT22;5678;52.370;9.006;2023-04-09T01:21:01;4.30;99.90
11242;DHT22;5678;52.370;9.006;2023-04-09T01:23:36;3.20;99.90
11242;DHT22;5678;52.370;9.006;2023-04-09T01:26:17;2.80;99.90
11242;DHT22;5678;52.370;9.006;2023-04-09T01:28:52;1.90;99.90
11242;DHT22;5678;52.370;9.006;2023-04-09T01:31:25;2.30;99.90
11242;DHT22;5678;52.370;9.006;2023-04-09T01:33:55;1.60;99.90
11242;DHT22;5678;52.370;9.006;2023-04-09T01:36:23;3.50;99.90
11242;DHT22;5678;52.370;9.006;2023-04-09T01:38:54;1.70;99.90
11242;DHT22;5678;52.370;9.006;2023-04-09T01:41:23;1.70;99.90
11242;DHT22;5678;52.370;9.006;2023-04-09T01:43:54;1.60;99.90
11242;DHT22;5678;52.370;9.006;2023-04-09T01:46:23;1.50;99.90
11242;DHT22;5678;52.370;9.006;2023-04-09T01:48:53;3.60;99.90
11242;DHT22;5678;52.370;9.006;2023-04-09T01:51:23;1.20;99.90
11242;DHT22;5678;52.370;9.006;2023-04-09T01:53:53;1.30;99.90
11242;DHT22;5678;52.370;9.006;2023-04-09T01:56:21;1.30;99.90
11242;DHT22;5678;52.370;9.006;2023-04-09T01:58:49;1.30;99.90
11242;DHT22;5678;52.370;9.006;2023-04-09T02:01:26;3.00;99.90
11242;DHT22;5678;52.370;9.006;2023-04-09T02:04:02;1.20;99.90
11242;DHT22;5678;52.370;9.006;2023-04-09T02:06:36;1.20;99.90
11242;DHT22;5678;52.370;9.006;2023-04-09T02:09:07;1.20;99.90
11242;DHT22;5678;52.370;9.006;2023-04-09T02:11:37;1.20;99.90
11242;DHT22;5678;52.370;9.006;2023-04-09T02:14:08;1.10;99.90
11242;DHT22;5678;52.370;9.006;2023-04-09T02:16:38;1.00;99.90
11242;DHT22;5678;52.370;9.006;2023-04-09T02:19:07;1.20;99.90
11242;DHT22;5678;52.370;9.006;2023-04-09T02:21:35;1.30;99.90
11242;DHT22;5678;52.370;9.006;2023-04-09T02:24:03;3.30;99.90
11242;DHT22;5678;52.370;9.006;2023-04-09T02:26:31;1.30;99.90
11242;DHT22;5678;52.370;9.006;2023-04-09T02:28:59;1.20;99.90
11242;DHT22;5678;52.370;9.006;2023-04-09T02:31:27;1.20;99.90
11242;DHT22;5678;52.370;9.006;2023-04-09T02:33:56;1.20;99.90
11242;DHT22;5678;52.370;9.006;2023-04-09T02:36:24;1.30;99.90
11242;DHT22;5678;52.370;9.006;2023-04-09T02:38:53;1.20;99.90
11242;DHT22;5678;52.370;9.006;2023-04-09T02:41:21;1.80;99.90
11242;DHT22;5678;52.370;9.006;2023-04-09T02:43:50;3.00;99.90
11242;DHT22;5678;52.370;9.006;2023-04-09T02:46:18;1.20;99.90
11242;DHT22;5678;52.370;9.006;2023-04-09T02:48:46;1.20;99.90
11242;DHT22;5678;52.370;9.006;2023-04-09T02:51:15;1.20;99.90
11242;DHT22;5678;52.370;9.006;2023-04-09T02:53:43;1.10;99.90
11242;DHT22;5678;52.370;9.006;2023-04-09T02:56:11;3.40;99.90
11242;DHT22;5678;52.370;9.006;2023-04-09T02:58:39;1.20;99.90
11242;DHT22;5678;52.370;9.006;2023-04-09T03:01:07;1.50;99.90
11242;DHT22;5678;52.370;9.006;2023-04-09T03:03:35;1.70;99.90
11242;DHT22;5678;52.370;9.006;2023-04-09T03:06:04;3.80;99.90
11242;DHT22;5678;52.370;9.006;2023-04-09T03:08:34;2.20;99.90
11242;DHT22;5678;52.370;9.006;2023-04-09T03:11:02;2.10;99.90
11242;DHT22;5678;52.370;9.006;2023-04-09T03:13:30;4.30;99.90
11242;DHT22;5678;52.370;9.006;2023-04-09T03:15:58;4.40;99.90
11242;DHT22;5678;52.370;9.006;2023-04-09T03:18:26;2.20;99.90
11242;DHT22;5678;52.370;9.006;2023-04-09T03:20:54;2.40;99.90
11242;DHT22;5678;52.370;9.006;2023-04-09T03:23:22;2.30;99.90
11242;DHT22;5678;52.370;9.006;2023-04-09T03:26:00;3.70;99.90
11242;DHT22;5678;52.370;9.006;2023-04-09T03:28:28;3.70;99.90
11242;DHT22;5678;52.370;9.006;2023-04-09T03:30:57;3.20;99.90
11242;DHT22;5678;52.370;9.006;2023-04-09T03:33:24;2.90;99.90
11242;DHT22;5678;52.370;9.006;2023-04-09T03:35:52;4.00;99.90
11242;DHT22;5678;52.370;9.006;2023-04-09T03:38:20;2.70;99.90
11242;DHT22;5678;52.370;9.006;2023-04-09T03:40:48;2.70;99.90
11242;DHT22;5678;52.370;9.006;2023-04-09T03:43:18;2.70;99.90
11242;DHT22;5678;52.370;9.006;2023-04-09T03:45:46;2.80;99.90
11242;DHT22;5678;52.370;9.006;2023-04-09T03:48:13;4.50;99.90
11242;DHT22;5678;52.370;9.006;2023-04-09T03:50:41;2.90;99.90
11242;DHT22;5678;52.370;9.006;2023-04-09T03:53:09;4.40;99.90
11242;DHT22;5678;52.370;9.006;2023-04-09T03:55:37;3.80;99.90
11242;DHT22;5678;52.370;9.006;2023-04-09T03:58:05;3.00;99.90
11242;DHT22;5678;52.370;9.006;2023-04-09T04:00:34;4.00;99.90
11242;DHT22;5678;52.370;9.006;2023-04-09T04:03:02;4.00;99.90
11242;DHT22;5678;52.370;9.006;2023-04-09T04:05:31;3.00;99.90
11242;DHT22;5678;52.370;9.006;2023-04-09T04:07:59;3.00;99.90
11242;DHT22;5678;52.370;9.006;2023-04-09T04:10:27;4.00;99.90
11242;DHT22;5678;52.370;9.006;2023-04-09T04:12:57;3.70;99.90
11242;DHT22;5678;52.370;9.006;2023-04-09T04:15:26;3.60;99.90
11242;DHT22;5678;52.370;9.006;2023-04-09T04:18:07;4.20;99.90
11242;DHT22;5678;52.370;9.006;2023-04-09T04:20:37;1.90;99.90
11242;DHT22;5678;52.370;9.006;2023-04-09T04:23:06;4.40;99.90
11242;DHT22;5678;52.370;9.006;2023-04-09T04:25:34;5.10;99.90
11242;DHT22;5678;52.370;9.006;2023-04-09T04:28:01;3.10;99.90
11242;DHT22;5678;52.370;9.006;2023-04-09T04:30:29;4.90;99.90
11242;DHT22;5678;52.370;9.006;2023-04-09T04:32:59;3.20;99.90
11242;DHT22;5678;52.370;9.006;2023-04-09T04:35:27;4.90;99.90
11242;DHT22;5678;52.370;9.006;2023-04-09T04:37:55;3.30;99.90
11242;DHT22;5678;52.370;9.006;2023-04-09T04:40:23;3.30;99.90
11242;DHT22;5678;52.370;9.006;2023-04-09T04:42:51;3.30;99.90
11242;DHT22;5678;52.370;9.006;2023-04-09T04:45:18;3.30;99.90
11242;DHT22;5678;52.370;9.006;2023-04-09T04:47:46;3.20;99.90
11242;DHT22;5678;52.370;9.006;2023-04-09T04:50:16;3.20;99.90
11242;DHT22;5678;52.370;9.006;2023-04-09T04:52:44;5.00;99.90
11242;DHT22;5678;52.370;9.006;2023-04-09T04:55:12;3.30;99.90
11242;DHT22;5678;52.370;9.006;2023-04-09T04:57:40;3.30;99.90
11242;DHT22;5678;52.370;9.006;2023-04-09T05:00:08;5.20;99.90
11242;DHT22;5678;52.370;9.006;2023-04-09T05:02:36;3.20;99.90
11242;DHT22;5678;52.370;9.006;2023-04-09T05:05:05;3.10;99.90
11242;DHT22;5678;52.370;9.006;2023-04-09T05:07:34;3.10;99.90
11242;DHT22;5678;52.370;9.006;2023-04-09T05:10:02;3.10;99.90
11242;DHT22;5678;52.370;9.006;2023-04-09T05:12:30;3.10;99.90
11242;DHT22;5678;52.370;9.006;2023-04-09T05:14:58;3.10;99.90
11242;DHT22;5678;52.370;9.006;2023-04-09T05:17:26;4.50;99.90
11242;DHT22;5678;52.370;9.006;2023-04-09T05:19:54;3.10;99.90
11242;DHT22;5678;52.370;9.006;2023-04-09T05:22:23;3.10;99.90
11242;DHT22;5678;52.370;9.006;2023-04-09T05:24:52;3.10;99.90
11242;DHT22;5678;52.370;9.006;2023-04-09T05:27:20;3.20;99.90
11242;DHT22;5678;52.370;9.006;2023-04-09T05:29:49;3.20;99.90
11242;DHT22;5678;52.370;9.006;2023-04-09T05:32:17;3.20;99.90
11242;DHT22;5678;52.370;9.006;2023-04-09T05:34:45;3.90;99.90
11242;DHT22;5678;52.370;9.006;2023-04-09T05:37:14;3.20;99.90
11242;DHT22;5678;52.370;9.006;2023-04-09T05:39:41;4.90;99.90
11242;DHT22;5678;52.370;9.006;2023-04-09T05:42:11;3.20;99.90
11242;DHT22;5678;52.370;9.006;2023-04-09T05:44:39;3.20;99.90
11242;DHT22;5678;52.370;9.006;2023-04-09T05:47:07;4.80;99.90
11242;DHT22;5678;52.370;9.006;2023-04-09T05:49:34;4.30;99.90
11242;DHT22;5678;52.370;9.006;2023-04-09T05:52:03;3.30;99.90
11242;DHT22;5678;52.370;9.006;2023-04-09T05:54:31;3.40;99.90
11242;DHT22;5678;52.370;9.006;2023-04-09T05:56:58;3.30;99.90
11242;DHT22;5678;52.370;9.006;2023-04-09T05:59:28;3.40;99.90
11242;DHT22;5678;52.370;9.006;2023-04-09T06:01:56;3.50;99.90
11242;DHT22;5678;52.370;9.006;2023-04-09T06:04:24;5.20;99.90
11242;DHT22;5678;52.370;9.006;2023-04-09T06:06:52;5.30;99.90
11242;DHT22;5678;52.370;9.006;2023-04-09T06:09:21;3.60;99.90
11242;DHT22;5678;52.370;9.006;2023-04-09T06:11:49;3.60;99.90
11242;DHT22;5678;52.370;9.006;2023-04-09T06:14:17;5.40;99.90
11242;DHT22;5678;52.370;9.006;2023-04-09T06:16:46;5.20;99.90
11242;DHT22;5678;52.370;9.006;2023-04-09T06:19:15;5.30;99.90
11242;DHT22;5678;52.370;9.006;2023-04-09T06:21:43;4.60;99.90
11242;DHT22;5678;52.370;9.006;2023-04-09T06:24:11;3.80;99.90
11242;DHT22;5678;52.370;9.006;2023-04-09T06:26:39;5.10;99.90
11242;DHT22;5678;52.370;9.006;2023-04-09T06:29:07;4.40;99.90
11242;DHT22;5678;52.370;9.006;2023-04-09T06:31:34;5.70;99.90
11242;DHT22;5678;52.370;9.006;2023-04-09T06:34:04;3.90;99.90
11242;DHT22;5678;52.370;9.006;2023-04-09T06:36:32;4.00;99.90
11242;DHT22;5678;52.370;9.006;2023-04-09T06:39:00;4.10;99.90
11242;DHT22;5678;52.370;9.006;2023-04-09T06:41:28;4.70;99.90
11242;DHT22;5678;52.370;9.006;2023-04-09T06:43:57;4.20;99.90
11242;DHT22;5678;52.370;9.006;2023-04-09T06:46:25;6.00;99.90
11242;DHT22;5678;52.370;9.006;2023-04-09T06:48:53;4.40;99.90
11242;DHT22;5678;52.370;9.006;2023-04-09T06:51:22;4.40;99.90
11242;DHT22;5678;52.370;9.006;2023-04-09T06:53:50;4.50;99.90
11242;DHT22;5678;52.370;9.006;2023-04-09T06:56:18;4.50;99.90
11242;DHT22;5678;52.370;9.006;2023-04-09T06:58:46;5.10;99.90
11242;DHT22;5678;52.370;9.006;2023-04-09T07:01:14;4.50;99.90
11242;DHT22;5678;52.370;9.006;2023-04-09T07:03:43;6.10;99.90
11242;DHT22;5678;52.370;9.006;2023-04-09T07:06:11;4.50;99.90
11242;DHT22;5678;52.370;9.006;2023-04-09T07:08:40;4.50;99.90
11242;DHT22;5678;52.370;9.006;2023-04-09T07:11:08;6.10;99.90
11242;DHT22;5678;52.370;9.006;2023-04-09T07:13:36;5.00;99.90
11242;DHT22;5678;52.370;9.006;2023-04-09T07:16:04;4.50;99.90
11242;DHT22;5678;52.370;9.006;2023-04-09T07:18:32;4.60;99.90
11242;DHT22;5678;52.370;9.006;2023-04-09T07:21:00;4.70;99.90
11242;DHT22;5678;52.370;9.006;2023-04-09T07:23:33;4.70;99.90
11242;DHT22;5678;52.370;9.006;2023-04-09T07:26:03;6.20;99.90
11242;DHT22;5678;52.370;9.006;2023-04-09T07:28:31;6.70;99.90
11242;DHT22;5678;52.370;9.006;2023-04-09T07:31:00;5.00;99.90
11242;DHT22;5678;52.370;9.006;2023-04-09T07:33:28;6.10;99.90
11242;DHT22;5678;52.370;9.006;2023-04-09T07:35:56;5.40;99.90
11242;DHT22;5678;52.370;9.006;2023-04-09T07:38:24;6.40;99.90
11242;DHT22;5678;52.370;9.006;2023-04-09T07:40:54;6.60;99.90
11242;DHT22;5678;52.370;9.006;2023-04-09T07:43:23;5.60;99.90
11242;DHT22;5678;52.370;9.006;2023-04-09T07:45:51;5.10;99.90
11242;DHT22;5678;52.370;9.006;2023-04-09T07:48:19;5.60;99.90
11242;DHT22;5678;52.370;9.006;2023-04-09T07:50:47;5.20;99.90
11242;DHT22;5678;52.370;9.006;2023-04-09T07:53:15;5.70;99.90
11242;DHT22;5678;52.370;9.006;2023-04-09T07:55:43;5.10;99.90
11242;DHT22;5678;52.370;9.006;2023-04-09T07:58:11;5.50;99.90
11242;DHT22;5678;52.370;9.006;2023-04-09T08:00:40;5.30;99.90
11242;DHT22;5678;52.370;9.006;2023-04-09T08:03:08;5.40;99.90
11242;DHT22;5678;52.370;9.006;2023-04-09T08:05:36;5.50;99.90
11242;DHT22;5678;52.370;9.006;2023-04-09T08:08:05;6.80;99.90
11242;DHT22;5678;52.370;9.006;2023-04-09T08:10:33;5.60;99.90
11242;DHT22;5678;52.370;9.006;2023-04-09T08:13:01;5.70;99.90
11242;DHT22;5678;52.370;9.006;2023-04-09T08:15:29;5.90;99.90
11242;DHT22;5678;52.370;9.006;2023-04-09T08:17:59;6.00;99.90
11242;DHT22;5678;52.370;9.006;2023-04-09T08:20:29;6.20;99.90
11242;DHT22;5678;52.370;9.006;2023-04-09T08:22:58;6.50;99.90
11242;DHT22;5678;52.370;9.006;2023-04-09T08:25:26;6.50;99.90
11242;DHT22;5678;52.370;9.006;2023-04-09T08:27:54;6.80;99.90
11242;DHT22;5678;52.370;9.006;2023-04-09T08:30:24;6.60;99.90
11242;DHT22;5678;52.370;9.006;2023-04-09T08:32:52;6.70;99.90
11242;DHT22;5678;52.370;9.006;2023-04-09T08:35:22;6.90;99.90
11242;DHT22;5678;52.370;9.006;2023-04-09T08:37:50;7.00;99.90
11242;DHT22;5678;52.370;9.006;2023-04-09T08:40:18;7.30;99.90
11242;DHT22;5678;52.370;9.006;2023-04-09T08:42:50;7.50;99.90
11242;DHT22;5678;52.370;9.006;2023-04-09T08:45:20;7.60;99.90
11242;DHT22;5678;52.370;9.006;2023-04-09T08:47:49;7.60;99.90
11242;DHT22;5678;52.370;9.006;2023-04-09T08:50:19;7.80;99.90
11242;DHT22;5678;52.370;9.006;2023-04-09T08:52:50;7.80;99.90
11242;DHT22;5678;52.370;9.006;2023-04-09T08:55:19;7.60;99.90
11242;DHT22;5678;52.370;9.006;2023-04-09T08:57:47;7.70;99.90
11242;DHT22;5678;52.370;9.006;2023-04-09T09:00:15;7.80;99.90
11242;DHT22;5678;52.370;9.006;2023-04-09T09:03:01;8.00;99.90
11242;DHT22;5678;52.370;9.006;2023-04-09T09:05:37;8.30;99.90
11242;DHT22;5678;52.370;9.006;2023-04-09T09:08:08;8.60;99.90
11242;DHT22;5678;52.370;9.006;2023-04-09T09:10:37;8.90;99.90
11242;DHT22;5678;52.370;9.006;2023-04-09T09:13:17;9.10;99.90
11242;DHT22;5678;52.370;9.006;2023-04-09T09:15:45;9.40;99.90
11242;DHT22;5678;52.370;9.006;2023-04-09T09:18:16;10.60;99.90
11242;DHT22;5678;52.370;9.006;2023-04-09T09:20:45;10.00;99.90
11242;DHT22;5678;52.370;9.006;2023-04-09T09:23:14;10.40;99.90
11242;DHT22;5678;52.370;9.006;2023-04-09T09:25:42;10.70;99.90
11242;DHT22;5678;52.370;9.006;2023-04-09T09:28:11;10.70;99.90
11242;DHT22;5678;52.370;9.006;2023-04-09T09:30:39;10.80;99.90
11242;DHT22;5678;52.370;9.006;2023-04-09T09:33:08;11.60;99.90
11242;DHT22;5678;52.370;9.006;2023-04-09T09:35:47;11.10;99.90
11242;DHT22;5678;52.370;9.006;2023-04-09T09:38:17;11.20;99.90
11242;DHT22;5678;52.370;9.006;2023-04-09T09:40:45;11.40;99.90
11242;DHT22;5678;52.370;9.006;2023-04-09T09:43:14;12.40;99.90
11242;DHT22;5678;52.370;9.006;2023-04-09T09:45:42;11.80;99.90
11242;DHT22;5678;52.370;9.006;2023-04-09T09:48:11;11.70;99.90
11242;DHT22;5678;52.370;9.006;2023-04-09T09:50:40;12.10;99.90
11242;DHT22;5678;52.370;9.006;2023-04-09T09:53:10;12.40;99.90
11242;DHT22;5678;52.370;9.006;2023-04-09T09:55:42;12.50;99.90
11242;DHT22;5678;52.370;9.006;2023-04-09T09:58:16;12.60;99.90
11242;DHT22;5678;52.370;9.006;2023-04-09T10:00:46;12.10;99.90
11242;DHT22;5678;52.370;9.006;2023-04-09T10:03:20;12.00;99.90
11242;DHT22;5678;52.370;9.006;2023-04-09T10:05:49;14.00;99.90
11242;DHT22;5678;52.370;9.006;2023-04-09T10:08:19;13.50;99.90
11242;DHT22;5678;52.370;9.006;2023-04-09T10:10:49;12.70;99.90
11242;DHT22;5678;52.370;9.006;2023-04-09T10:13:23;14.20;99.90
11242;DHT22;5678;52.370;9.006;2023-04-09T10:15:52;14.80;99.90
11242;DHT22;5678;52.370;9.006;2023-04-09T10:18:21;14.90;99.90
11242;DHT22;5678;52.370;9.006;2023-04-09T10:20:53;14.00;99.90
11242;DHT22;5678;52.370;9.006;2023-04-09T10:23:30;14.80;99.90
11242;DHT22;5678;52.370;9.006;2023-04-09T10:26:00;13.60;99.90
11242;DHT22;5678;52.370;9.006;2023-04-09T10:28:28;15.50;99.90
11242;DHT22;5678;52.370;9.006;2023-04-09T10:30:57;13.80;99.90
11242;DHT22;5678;52.370;9.006;2023-04-09T10:33:26;13.90;99.90
11242;DHT22;5678;52.370;9.006;2023-04-09T10:35:58;14.90;99.90
11242;DHT22;5678;52.370;9.006;2023-04-09T10:38:34;15.80;99.90
11242;DHT22;5678;52.370;9.006;2023-04-09T10:41:11;14.60;99.90
11242;DHT22;5678;52.370;9.006;2023-04-09T10:43:40;14.30;99.90
11242;DHT22;5678;52.370;9.006;2023-04-09T10:46:24;15.70;99.90
11242;DHT22;5678;52.370;9.006;2023-04-09T10:49:09;15.00;99.90
11242;DHT22;5678;52.370;9.006;2023-04-09T10:51:38;15.20;99.90
11242;DHT22;5678;52.370;9.006;2023-04-09T10:54:39;14.00;99.90
11242;DHT22;5678;52.370;9.006;2023-04-09T10:57:17;14.10;99.90
11242;DHT22;5678;52.370;9.006;2023-04-09T10:59:48;14.30;99.90
11242;DHT22;5678;52.370;9.006;2023-04-09T11:05:31;14.40;99.90
11242;DHT22;5678;52.370;9.006;2023-04-09T11:08:04;15.60;99.90
11242;DHT22;5678;52.370;9.006;2023-04-09T11:10:33;14.90;99.90
11242;DHT22;5678;52.370;9.006;2023-04-09T11:13:03;14.90;99.90
11242;DHT22;5678;52.370;9.006;2023-04-09T11:15:32;15.00;99.90
11242;DHT22;5678;52.370;9.006;2023-04-09T11:18:01;15.00;99.90
11242;DHT22;5678;52.370;9.006;2023-04-09T11:20:29;15.60;99.90
11242;DHT22;5678;52.370;9.006;2023-04-09T11:22:58;15.30;99.90
11242;DHT22;5678;52.370;9.006;2023-04-09T11:25:27;15.40;99.90
11242;DHT22;5678;52.370;9.006;2023-04-09T11:27:57;15.30;99.90
11242;DHT22;5678;52.370;9.006;2023-04-09T11:30:26;16.70;99.90
11242;DHT22;5678;52.370;9.006;2023-04-09T11:32:56;14.90;99.90
11242;DHT22;5678;52.370;9.006;2023-04-09T11:35:24;14.70;99.90
11242;DHT22;5678;52.370;9.006;2023-04-09T11:37:52;14.80;99.90
11242;DHT22;5678;52.370;9.006;2023-04-09T11:40:22;16.30;99.90
11242;DHT22;5678;52.370;9.006;2023-04-09T11:42:53;15.00;99.90
11242;DHT22;5678;52.370;9.006;2023-04-09T11:45:23;15.60;99.90
11242;DHT22;5678;52.370;9.006;2023-04-09T11:47:54;15.20;99.90
11242;DHT22;5678;52.370;9.006;2023-04-09T11:50:22;16.10;99.90
11242;DHT22;5678;52.370;9.006;2023-04-09T11:52:51;15.90;99.90
11242;DHT22;5678;52.370;9.006;2023-04-09T11:55:23;16.60;99.90
11242;DHT22;5678;52.370;9.006;2023-04-09T11:57:55;16.00;99.90
11242;DHT22;5678;52.370;9.006;2023-04-09T12:00:24;15.80;99.90
11242;DHT22;5678;52.370;9.006;2023-04-09T12:03:00;16.20;99.90
11242;DHT22;5678;52.370;9.006;2023-04-09T12:05:31;15.30;99.90
11242;DHT22;5678;52.370;9.006;2023-04-09T12:08:00;15.10;99.90
11242;DHT22;5678;52.370;9.006;2023-04-09T12:10:29;15.50;99.90
11242;DHT22;5678;52.370;9.006;2023-04-09T12:13:00;14.70;99.90
11242;DHT22;5678;52.370;9.006;2023-04-09T12:15:31;15.20;99.90
11242;DHT22;5678;52.370;9.006;2023-04-09T12:18:01;15.70;99.90
11242;DHT22;5678;52.370;9.006;2023-04-09T12:20:32;15.60;99.90
11242;DHT22;5678;52.370;9.006;2023-04-09T12:23:01;15.90;99.90
11242;DHT22;5678;52.370;9.006;2023-04-09T12:25:30;14.20;99.90
11242;DHT22;5678;52.370;9.006;2023-04-09T12:27:58;14.00;99.90
11242;DHT22;5678;52.370;9.006;2023-04-09T12:30:26;15.40;99.90
11242;DHT22;5678;52.370;9.006;2023-04-09T12:32:54;14.40;99.90
11242;DHT22;5678;52.370;9.006;2023-04-09T12:35:24;14.60;99.90
11242;DHT22;5678;52.370;9.006;2023-04-09T12:37:52;14.40;99.90
11242;DHT22;5678;52.370;9.006;2023-04-09T12:40:21;14.60;99.90
11242;DHT22;5678;52.370;9.006;2023-04-09T12:42:49;15.50;99.90
11242;DHT22;5678;52.370;9.006;2023-04-09T12:45:18;16.00;99.90
11242;DHT22;5678;52.370;9.006;2023-04-09T12:47:46;16.20;99.90
11242;DHT22;5678;52.370;9.006;2023-04-09T12:50:15;15.20;99.90
11242;DHT22;5678;52.370;9.006;2023-04-09T12:52:44;15.90;99.90
11242;DHT22;5678;52.370;9.006;2023-04-09T12:55:13;14.90;99.90
11242;DHT22;5678;52.370;9.006;2023-04-09T12:57:42;16.00;99.90
11242;DHT22;5678;52.370;9.006;2023-04-09T13:00:12;14.90;99.90
11242;DHT22;5678;52.370;9.006;2023-04-09T13:02:40;14.80;99.90
11242;DHT22;5678;52.370;9.006;2023-04-09T13:05:09;16.10;99.90
11242;DHT22;5678;52.370;9.006;2023-04-09T13:07:36;16.00;99.90
11242;DHT22;5678;52.370;9.006;2023-04-09T13:10:10;15.10;99.90
11242;DHT22;5678;52.370;9.006;2023-04-09T13:12:38;14.80;99.90
11242;DHT22;5678;52.370;9.006;2023-04-09T13:15:06;15.30;99.90
11242;DHT22;5678;52.370;9.006;2023-04-09T13:17:34;14.30;99.90
11242;DHT22;5678;52.370;9.006;2023-04-09T13:20:02;16.30;99.90
11242;DHT22;5678;52.370;9.006;2023-04-09T13:22:31;14.60;99.90
11242;DHT22;5678;52.370;9.006;2023-04-09T13:24:58;14.90;99.90
11242;DHT22;5678;52.370;9.006;2023-04-09T13:27:28;14.40;99.90
11242;DHT22;5678;52.370;9.006;2023-04-09T13:29:56;14.80;99.90
11242;DHT22;5678;52.370;9.006;2023-04-09T13:32:24;14.20;99.90
11242;DHT22;5678;52.370;9.006;2023-04-09T13:34:52;14.50;99.90
11242;DHT22;5678;52.370;9.006;2023-04-09T13:37:21;15.40;99.90
11242;DHT22;5678;52.370;9.006;2023-04-09T13:39:49;14.80;99.90
11242;DHT22;5678;52.370;9.006;2023-04-09T13:42:17;14.00;99.90
11242;DHT22;5678;52.370;9.006;2023-04-09T13:44:46;14.00;99.90
11242;DHT22;5678;52.370;9.006;2023-04-09T13:47:15;15.20;99.90
11242;DHT22;5678;52.370;9.006;2023-04-09T13:49:43;15.50;99.90
11242;DHT22;5678;52.370;9.006;2023-04-09T13:52:12;14.90;99.90
11242;DHT22;5678;52.370;9.006;2023-04-09T13:54:40;13.90;99.90
11242;DHT22;5678;52.370;9.006;2023-04-09T13:57:08;14.20;99.90
11242;DHT22;5678;52.370;9.006;2023-04-09T13:59:36;14.50;99.90
11242;DHT22;5678;52.370;9.006;2023-04-09T14:02:06;13.80;99.90
11242;DHT22;5678;52.370;9.006;2023-04-09T14:04:34;15.50;99.90
11242;DHT22;5678;52.370;9.006;2023-04-09T14:07:02;13.80;99.90
11242;DHT22;5678;52.370;9.006;2023-04-09T14:09:30;15.00;99.90
11242;DHT22;5678;52.370;9.006;2023-04-09T14:11:58;13.60;99.90
11242;DHT22;5678;52.370;9.006;2023-04-09T14:14:27;15.10;99.90
11242;DHT22;5678;52.370;9.006;2023-04-09T14:16:55;14.70;99.90
11242;DHT22;5678;52.370;9.006;2023-04-09T14:19:24;13.30;99.90
11242;DHT22;5678;52.370;9.006;2023-04-09T14:21:53;13.50;99.90
11242;DHT22;5678;52.370;9.006;2023-04-09T14:24:21;15.20;99.90
11242;DHT22;5678;52.370;9.006;2023-04-09T14:26:49;15.30;99.90
11242;DHT22;5678;52.370;9.006;2023-04-09T14:29:19;14.40;99.90
11242;DHT22;5678;52.370;9.006;2023-04-09T14:31:47;13.60;99.90
11242;DHT22;5678;52.370;9.006;2023-04-09T14:34:15;14.90;99.90
11242;DHT22;5678;52.370;9.006;2023-04-09T14:36:45;13.80;99.90
11242;DHT22;5678;52.370;9.006;2023-04-09T14:39:12;13.90;99.90
11242;DHT22;5678;52.370;9.006;2023-04-09T14:41:41;15.70;99.90
11242;DHT22;5678;52.370;9.006;2023-04-09T14:44:09;13.80;99.90
11242;DHT22;5678;52.370;9.006;2023-04-09T14:46:37;14.70;99.90
11242;DHT22;5678;52.370;9.006;2023-04-09T14:49:05;14.40;99.90
11242;DHT22;5678;52.370;9.006;2023-04-09T14:51:33;15.10;99.90
11242;DHT22;5678;52.370;9.006;2023-04-09T14:54:02;15.80;99.90
11242;DHT22;5678;52.370;9.006;2023-04-09T14:56:30;13.90;99.90
11242;DHT22;5678;52.370;9.006;2023-04-09T14:58:58;15.60;99.90
11242;DHT22;5678;52.370;9.006;2023-04-09T15:01:26;14.90;99.90
11242;DHT22;5678;52.370;9.006;2023-04-09T15:03:55;13.70;99.90
11242;DHT22;5678;52.370;9.006;2023-04-09T15:06:23;13.60;99.90
11242;DHT22;5678;52.370;9.006;2023-04-09T15:08:51;14.30;99.90
11242;DHT22;5678;52.370;9.006;2023-04-09T15:11:21;15.40;99.90
11242;DHT22;5678;52.370;9.006;2023-04-09T15:13:50;15.40;99.90
11242;DHT22;5678;52.370;9.006;2023-04-09T15:16:22;13.70;99.90
11242;DHT22;5678;52.370;9.006;2023-04-09T15:18:52;14.60;99.90
11242;DHT22;5678;52.370;9.006;2023-04-09T15:21:22;14.90;99.90
11242;DHT22;5678;52.370;9.006;2023-04-09T15:23:50;13.60;99.90
11242;DHT22;5678;52.370;9.006;2023-04-09T15:26:18;14.00;99.90
11242;DHT22;5678;52.370;9.006;2023-04-09T15:28:47;13.50;99.90
11242;DHT22;5678;52.370;9.006;2023-04-09T15:31:15;14.00;99.90
11242;DHT22;5678;52.370;9.006;2023-04-09T15:33:44;13.60;99.90
11242;DHT22;5678;52.370;9.006;2023-04-09T15:36:12;13.60;99.90
11242;DHT22;5678;52.370;9.006;2023-04-09T15:38:41;15.20;99.90
11242;DHT22;5678;52.370;9.006;2023-04-09T15:41:11;14.50;99.90
11242;DHT22;5678;52.370;9.006;2023-04-09T15:43:39;14.70;99.90
11242;DHT22;5678;52.370;9.006;2023-04-09T15:46:09;13.30;99.90
11242;DHT22;5678;52.370;9.006;2023-04-09T15:48:37;13.20;99.90
11242;DHT22;5678;52.370;9.006;2023-04-09T15:51:05;14.60;99.90
11242;DHT22;5678;52.370;9.006;2023-04-09T15:53:33;13.20;99.90
11242;DHT22;5678;52.370;9.006;2023-04-09T15:56:01;14.40;99.90
11242;DHT22;5678;52.370;9.006;2023-04-09T15:58:29;13.10;99.90
11242;DHT22;5678;52.370;9.006;2023-04-09T16:00:57;14.60;99.90
11242;DHT22;5678;52.370;9.006;2023-04-09T16:03:28;15.00;99.90
11242;DHT22;5678;52.370;9.006;2023-04-09T16:06:02;13.50;99.90
11242;DHT22;5678;52.370;9.006;2023-04-09T16:08:33;13.10;99.90
11242;DHT22;5678;52.370;9.006;2023-04-09T16:11:02;13.20;99.90